Terminal Aerodrome Forecast
Issued by NWS

Home | Current Version | Previous Version | Text Only | Print | Product List | Glossary On
Versions: 1 2 3 4 5 6 7 8 9 10 11 12 13 14 15
000
FTUS44 KLZK 250304 AAB
TAFHOT
TAF AMD
KHOT 250304Z 2503/2524 16004KT P6SM BKN120
     FM250500 VRB03KT P6SM SCT120 BKN250
     FM251400 08005KT P6SM SCT030 BKN080
     FM251800 05005KT P6SM VCTS SCT030CB OVC060 PROB30 2520/2524 4SM
      TSRA BR BKN030CB=

USA.gov is the U.S. government's official web portal to all federal, state and local government web resources and services.